createdAt,value
2023-03-20T00:00:30.269Z,98408.75
2023-03-20T00:02:56.826Z,98410.94
2023-03-20T00:05:24.349Z,98397.41
2023-03-20T00:07:51.018Z,98398.09
2023-03-20T00:10:17.952Z,98404.44
2023-03-20T00:12:44.759Z,98398.22
2023-03-20T00:15:30.234Z,98400.84
2023-03-20T00:17:56.761Z,98397.63
2023-03-20T00:20:23.285Z,98395.75
2023-03-20T00:22:50.035Z,98393.75
2023-03-20T00:25:17.987Z,98381.63
2023-03-20T00:27:44.506Z,98366.25
2023-03-20T00:30:28.622Z,98356.53
2023-03-20T00:32:56.539Z,98361.56
2023-03-20T00:35:24.106Z,98366.28
2023-03-20T00:37:51.685Z,98373.16
2023-03-20T00:40:18.347Z,98374.38
2023-03-20T00:42:46.554Z,98380.44
2023-03-20T00:45:18.521Z,98379.66
2023-03-20T00:47:45.602Z,98374.97
2023-03-20T00:50:16.990Z,98379.38
2023-03-20T00:52:44.539Z,98378.59
2023-03-20T00:55:11.373Z,98382.25
2023-03-20T00:57:49.531Z,98391.56
2023-03-20T01:00:22.179Z,98385.69
2023-03-20T01:02:48.710Z,98390.34
2023-03-20T01:05:15.164Z,98383.84
2023-03-20T01:07:41.656Z,98390.84
2023-03-20T01:10:09.710Z,98383.22
2023-03-20T01:12:36.200Z,98395.09
2023-03-20T01:15:02.768Z,98394.94
2023-03-20T01:17:29.865Z,98384.44
2023-03-20T01:19:56.494Z,98391.09
2023-03-20T01:22:22.949Z,98403.47
2023-03-20T01:24:49.435Z,98399.41
2023-03-20T01:27:17.319Z,98404.63
2023-03-20T01:29:43.875Z,98400.13
2023-03-20T01:32:18.531Z,98404.84
2023-03-20T01:34:45.101Z,98404.53
2023-03-20T01:37:17.896Z,98408.59
2023-03-20T01:39:44.373Z,98403.56
2023-03-20T01:42:11.857Z,98403.22
2023-03-20T01:44:38.354Z,98400.63
2023-03-20T01:47:12.066Z,98394.31
2023-03-20T01:50:23.604Z,98400.22
2023-03-20T01:53:17.209Z,98388.69
2023-03-20T01:55:43.768Z,98395.56
2023-03-20T01:58:14.656Z,98405.47
2023-03-20T02:00:41.161Z,98407.44
2023-03-20T02:03:07.929Z,98398.34
2023-03-20T02:05:34.595Z,98409.91
2023-03-20T02:08:23.623Z,98419.13
2023-03-20T02:10:50.420Z,98417.16
2023-03-20T02:13:16.911Z,98428.84
2023-03-20T02:16:01.290Z,98435.19
2023-03-20T02:18:27.739Z,98432.28
2023-03-20T02:21:28.394Z,98434.88
2023-03-20T02:24:22.634Z,98440.38
2023-03-20T02:26:57.979Z,98442.34
2023-03-20T02:29:51.838Z,98433.88
2023-03-20T02:32:59.685Z,98438.28
2023-03-20T02:35:56.849Z,98440.06
2023-03-20T02:38:54.673Z,98442.81
2023-03-20T02:41:30.776Z,98440.84
2023-03-20T02:44:12.241Z,98441.19
2023-03-20T02:47:00.779Z,98441.69
2023-03-20T02:49:43.555Z,98452.84
2023-03-20T02:52:18.529Z,98450.59
2023-03-20T02:55:07.109Z,98444.91
2023-03-20T02:57:50.253Z,98449.91
2023-03-20T03:00:36.636Z,98453.50
2023-03-20T03:03:27.593Z,98443.88
2023-03-20T03:05:56.411Z,98440.44
2023-03-20T03:08:23.716Z,98437.34
2023-03-20T03:10:53.000Z,98425.31
2023-03-20T03:13:21.755Z,98424.84
2023-03-20T03:15:50.333Z,98427.63
2023-03-20T03:18:19.545Z,98424.88
2023-03-20T03:20:46.420Z,98425.97
2023-03-20T03:23:29.747Z,98425.97
2023-03-20T03:25:57.627Z,98440.75
2023-03-20T03:28:40.678Z,98431.94
2023-03-20T03:31:08.605Z,98441.53
2023-03-20T03:33:37.185Z,98431.28
2023-03-20T03:36:40.006Z,98435.84
2023-03-20T03:39:40.422Z,98438.31
2023-03-20T03:42:12.564Z,98441.75
2023-03-20T03:44:48.310Z,98445.75
2023-03-20T03:47:18.831Z,98442.19
2023-03-20T03:49:48.970Z,98442.66
2023-03-20T03:52:18.322Z,98445.56
2023-03-20T03:54:47.623Z,98449.31
2023-03-20T03:57:16.379Z,98449.00
2023-03-20T03:59:44.640Z,98447.66
2023-03-20T04:02:11.274Z,98445.16
2023-03-20T04:04:42.205Z,98438.56
2023-03-20T04:07:08.732Z,98441.69
2023-03-20T04:09:35.672Z,98440.78
2023-03-20T04:12:02.126Z,98433.63
2023-03-20T04:14:28.868Z,98427.53
2023-03-20T04:16:55.329Z,98428.50
2023-03-20T04:19:21.804Z,98423.47
2023-03-20T04:21:48.305Z,98415.34
2023-03-20T04:24:15.271Z,98421.03
2023-03-20T04:26:41.905Z,98415.50
2023-03-20T04:29:08.669Z,98414.75
2023-03-20T04:31:35.703Z,98420.22
2023-03-20T04:34:02.199Z,98420.06
2023-03-20T04:36:28.673Z,98426.63
2023-03-20T04:38:57.522Z,98424.94
2023-03-20T04:41:24.193Z,98421.69
2023-03-20T04:43:50.648Z,98429.47
2023-03-20T04:46:17.220Z,98420.06
2023-03-20T04:48:43.733Z,98421.03
2023-03-20T04:51:10.484Z,98425.59
2023-03-20T04:53:37.162Z,98426.63
2023-03-20T04:56:03.708Z,98432.16
2023-03-20T04:58:30.196Z,98428.41
2023-03-20T05:00:56.795Z,98443.81
2023-03-20T05:03:24.224Z,98440.88
2023-03-20T05:05:50.822Z,98435.03
2023-03-20T05:08:17.290Z,98426.47
2023-03-20T05:10:43.771Z,98428.91
2023-03-20T05:13:10.494Z,98426.94
2023-03-20T05:15:37.797Z,98434.75
2023-03-20T05:18:04.340Z,98438.09
2023-03-20T05:20:30.853Z,98426.78
2023-03-20T05:22:57.318Z,98428.56
2023-03-20T05:25:23.785Z,98434.44
2023-03-20T05:27:50.860Z,98432.22
2023-03-20T05:30:17.606Z,98432.31
2023-03-20T05:32:44.122Z,98435.91
2023-03-20T05:35:10.653Z,98438.38
2023-03-20T05:37:37.831Z,98438.88
2023-03-20T05:40:05.027Z,98439.84
2023-03-20T05:42:31.528Z,98437.84
2023-03-20T05:44:58.002Z,98436.44
2023-03-20T05:47:26.203Z,98437.25
2023-03-20T05:49:52.852Z,98432.06
2023-03-20T05:52:19.311Z,98427.66
2023-03-20T05:54:45.794Z,98442.56
2023-03-20T05:57:12.269Z,98434.16
2023-03-20T05:59:38.735Z,98437.41
2023-03-20T06:02:05.353Z,98426.97
2023-03-20T06:04:32.093Z,98431.56
2023-03-20T06:06:58.600Z,98439.69
2023-03-20T06:09:25.326Z,98432.53
2023-03-20T06:11:51.803Z,98435.97
2023-03-20T06:14:18.558Z,98438.56
2023-03-20T06:16:45.471Z,98430.78
2023-03-20T06:19:11.950Z,98430.78
2023-03-20T06:21:38.427Z,98430.44
2023-03-20T06:24:05.370Z,98427.88
2023-03-20T06:26:31.847Z,98419.91
2023-03-20T06:28:58.391Z,98424.63
2023-03-20T06:31:24.950Z,98430.78
2023-03-20T06:33:52.589Z,98421.56
2023-03-20T06:36:19.071Z,98425.94
2023-03-20T06:38:45.888Z,98415.50
2023-03-20T06:41:16.721Z,98414.06
2023-03-20T06:43:48.122Z,98410.81
2023-03-20T06:46:14.607Z,98409.22
2023-03-20T06:48:41.366Z,98398.31
2023-03-20T06:51:07.929Z,98400.88
2023-03-20T06:53:34.401Z,98395.34
2023-03-20T06:56:00.968Z,98395.19
2023-03-20T06:58:27.429Z,98399.59
2023-03-20T07:00:54.622Z,98393.59
2023-03-20T07:03:21.303Z,98392.31
2023-03-20T07:05:48.474Z,98393.44
2023-03-20T07:08:15.273Z,98401.53
2023-03-20T07:10:41.808Z,98398.97
2023-03-20T07:13:08.376Z,98396.38
2023-03-20T07:15:35.193Z,98403.00
2023-03-20T07:18:01.995Z,98409.16
2023-03-20T07:20:28.482Z,98409.38
2023-03-20T07:22:55.538Z,98405.91
2023-03-20T07:25:35.474Z,98418.41
2023-03-20T07:28:08.162Z,98423.50
2023-03-20T07:30:34.629Z,98429.03
2023-03-20T07:33:01.139Z,98431.09
2023-03-20T07:35:27.703Z,98435.69
2023-03-20T07:37:54.560Z,98440.03
2023-03-20T07:40:21.434Z,98444.88
2023-03-20T07:42:47.909Z,98446.72
2023-03-20T07:45:14.971Z,98450.78
2023-03-20T07:47:42.321Z,98448.84
2023-03-20T07:50:09.134Z,98448.19
2023-03-20T07:52:35.618Z,98455.94
2023-03-20T07:55:02.104Z,98456.91
2023-03-20T07:57:28.569Z,98456.44
2023-03-20T07:59:55.089Z,98451.06
2023-03-20T08:02:21.564Z,98449.06
2023-03-20T08:04:48.080Z,98433.84
2023-03-20T08:07:14.826Z,98450.84
2023-03-20T08:09:41.435Z,98437.69
2023-03-20T08:12:08.070Z,98432.47
2023-03-20T08:14:34.812Z,98422.72
2023-03-20T08:17:13.583Z,98424.44
2023-03-20T08:19:41.176Z,98428.75
2023-03-20T08:22:07.650Z,98428.50
2023-03-20T08:24:34.156Z,98429.16
2023-03-20T08:27:00.685Z,98423.47
2023-03-20T08:29:27.205Z,98424.06
2023-03-20T08:31:53.676Z,98432.66
2023-03-20T08:34:21.654Z,98435.44
2023-03-20T08:36:52.770Z,98439.06
2023-03-20T08:39:19.272Z,98441.84
2023-03-20T08:41:45.875Z,98436.97
2023-03-20T08:44:13.167Z,98442.66
2023-03-20T08:46:39.986Z,98446.03
2023-03-20T08:49:06.528Z,98442.31
2023-03-20T08:51:33.190Z,98442.38
2023-03-20T08:53:59.641Z,98447.19
2023-03-20T08:56:26.174Z,98445.38
2023-03-20T08:58:54.965Z,98450.38
2023-03-20T09:01:22.450Z,98443.84
2023-03-20T09:03:48.935Z,98446.63
2023-03-20T09:06:15.723Z,98444.50
2023-03-20T09:08:42.197Z,98457.59
2023-03-20T09:11:08.715Z,98452.66
2023-03-20T09:13:35.370Z,98445.50
2023-03-20T09:16:01.989Z,98444.69
2023-03-20T09:18:28.528Z,98445.13
2023-03-20T09:20:56.702Z,98440.69
2023-03-20T09:23:23.234Z,98438.69
2023-03-20T09:25:49.721Z,98440.16
2023-03-20T09:28:16.234Z,98443.00
2023-03-20T09:30:43.616Z,98444.16
2023-03-20T09:33:10.558Z,98438.47
2023-03-20T09:35:37.782Z,98438.84
2023-03-20T09:38:04.334Z,98435.44
2023-03-20T09:40:42.522Z,98423.09
2023-03-20T09:43:21.269Z,98433.78
2023-03-20T09:46:22.136Z,98445.16
2023-03-20T09:49:02.906Z,98448.28
2023-03-20T09:51:43.368Z,98443.81
2023-03-20T09:54:43.362Z,98447.47
2023-03-20T09:57:35.901Z,98448.44
2023-03-20T10:00:05.771Z,98447.50
2023-03-20T10:02:44.905Z,98444.66
2023-03-20T10:05:17.287Z,98438.78
2023-03-20T10:07:44.046Z,98441.44
2023-03-20T10:10:14.252Z,98445.81
2023-03-20T10:12:52.654Z,98440.84
2023-03-20T10:15:24.876Z,98447.91
2023-03-20T10:17:55.946Z,98430.38
2023-03-20T10:20:36.988Z,98443.31
2023-03-20T10:23:22.980Z,98441.41
2023-03-20T10:25:56.767Z,98445.31
2023-03-20T10:28:30.660Z,98445.88
2023-03-20T10:31:31.674Z,98450.19
2023-03-20T10:34:20.048Z,98436.47
2023-03-20T10:36:50.233Z,98431.16
2023-03-20T10:39:34.670Z,98438.81
2023-03-20T10:42:02.269Z,98432.47
2023-03-20T10:44:35.485Z,98434.56
2023-03-20T10:47:02.527Z,98436.63
2023-03-20T10:49:42.715Z,98435.59
2023-03-20T10:52:15.586Z,98440.13
2023-03-20T10:54:44.147Z,98436.00
2023-03-20T10:57:23.077Z,98419.94
2023-03-20T10:59:54.771Z,98426.47
2023-03-20T11:02:21.791Z,98422.53
2023-03-20T11:04:48.333Z,98422.31
2023-03-20T11:07:26.019Z,98409.38
2023-03-20T11:10:04.795Z,98409.91
2023-03-20T11:12:36.305Z,98407.69
2023-03-20T11:15:25.749Z,98391.16
2023-03-20T11:18:02.429Z,98404.53
2023-03-20T11:20:37.666Z,98399.66
2023-03-20T11:23:05.389Z,98405.09
2023-03-20T11:25:37.479Z,98406.34
2023-03-20T11:28:40.273Z,98395.97
2023-03-20T11:31:13.641Z,98409.00
2023-03-20T11:33:43.138Z,98381.25
2023-03-20T11:36:19.960Z,98391.31
2023-03-20T11:38:46.500Z,98386.75
2023-03-20T11:41:27.053Z,98385.09
2023-03-20T11:43:53.664Z,98376.88
2023-03-20T11:46:23.180Z,98357.91
2023-03-20T11:49:07.173Z,98356.75
2023-03-20T11:51:35.358Z,98361.44
2023-03-20T11:54:04.035Z,98345.53
2023-03-20T11:56:32.717Z,98374.03
2023-03-20T11:59:15.231Z,98350.13
2023-03-20T12:01:46.739Z,98348.31
2023-03-20T12:04:42.952Z,98355.72
2023-03-20T12:07:16.471Z,98362.78
2023-03-20T12:09:48.538Z,98351.69
2023-03-20T12:12:45.634Z,98359.81
2023-03-20T12:15:18.496Z,98348.66
2023-03-20T12:17:51.561Z,98341.56
2023-03-20T12:20:43.027Z,98342.56
2023-03-20T12:23:09.425Z,98334.44
2023-03-20T12:26:12.684Z,98324.94
2023-03-20T12:29:04.270Z,98337.63
2023-03-20T12:31:46.001Z,98311.69
2023-03-20T12:34:18.493Z,98322.25
2023-03-20T12:36:46.360Z,98317.97
2023-03-20T12:39:14.510Z,98322.06
2023-03-20T12:42:07.302Z,98322.97
2023-03-20T12:44:41.872Z,98323.44
2023-03-20T12:47:27.173Z,98327.13
2023-03-20T12:50:02.875Z,98317.63
2023-03-20T12:52:46.456Z,98307.91
2023-03-20T12:55:20.542Z,98324.44
2023-03-20T12:58:08.085Z,98327.78
2023-03-20T13:00:38.504Z,98327.53
2023-03-20T13:03:33.081Z,98343.75
2023-03-20T13:06:27.411Z,98321.78
2023-03-20T13:09:17.184Z,98329.16
2023-03-20T13:12:05.581Z,98328.13
2023-03-20T13:15:02.487Z,98324.88
2023-03-20T13:17:47.811Z,98329.88
2023-03-20T13:20:29.821Z,98319.44
2023-03-20T13:23:05.604Z,98323.19
2023-03-20T13:25:54.556Z,98324.00
2023-03-20T13:28:47.114Z,98318.59
2023-03-20T13:31:28.804Z,98304.88
2023-03-20T13:34:12.825Z,98305.69
2023-03-20T13:36:51.896Z,98311.19
2023-03-20T13:39:21.382Z,98313.88
2023-03-20T13:41:47.881Z,98299.06
2023-03-20T13:44:15.226Z,98298.97
2023-03-20T13:46:45.521Z,98300.06
2023-03-20T13:49:16.570Z,98299.44
2023-03-20T13:51:47.760Z,98292.06
2023-03-20T13:54:41.701Z,98299.59
2023-03-20T13:57:44.696Z,98303.91
2023-03-20T14:00:36.544Z,98302.00
2023-03-20T14:03:19.588Z,98302.03
2023-03-20T14:05:46.437Z,98299.50
2023-03-20T14:08:28.100Z,98297.53
2023-03-20T14:11:15.821Z,98292.66
2023-03-20T14:13:44.785Z,98293.63
2023-03-20T14:16:11.993Z,98294.97
2023-03-20T14:18:38.614Z,98296.06
2023-03-20T14:21:13.699Z,98299.66
2023-03-20T14:23:44.372Z,98313.59
2023-03-20T14:26:48.466Z,98293.25
2023-03-20T14:29:14.775Z,98303.69
2023-03-20T14:31:45.215Z,98313.97
2023-03-20T14:34:11.747Z,98303.22
2023-03-20T14:36:56.164Z,98315.56
2023-03-20T14:39:50.930Z,98321.34
2023-03-20T14:42:49.879Z,98324.38
2023-03-20T14:45:37.510Z,98337.41
2023-03-20T14:48:08.086Z,98319.41
2023-03-20T14:50:49.426Z,98325.72
2023-03-20T14:53:25.615Z,98327.22
2023-03-20T14:55:54.947Z,98323.19
2023-03-20T14:58:35.619Z,98325.69
2023-03-20T15:01:06.584Z,98324.31
2023-03-20T15:03:33.247Z,98335.41
2023-03-20T15:06:01.464Z,98329.66
2023-03-20T15:08:36.027Z,98319.03
2023-03-20T15:11:07.935Z,98321.47
2023-03-20T15:13:35.262Z,98318.59
2023-03-20T15:16:12.750Z,98326.81
2023-03-20T15:18:47.016Z,98326.00
2023-03-20T15:21:41.207Z,98310.00
2023-03-20T15:24:07.853Z,98311.44
2023-03-20T15:26:35.009Z,98313.38
2023-03-20T15:29:06.680Z,98311.84
2023-03-20T15:31:34.695Z,98315.13
2023-03-20T15:34:02.128Z,98312.13
2023-03-20T15:36:29.393Z,98315.47
2023-03-20T15:39:18.381Z,98310.06
2023-03-20T15:41:54.764Z,98301.88
2023-03-20T15:44:24.879Z,98305.69
2023-03-20T15:47:17.200Z,98297.44
2023-03-20T15:49:43.756Z,98307.50
2023-03-20T15:52:24.845Z,98288.00
2023-03-20T15:54:51.311Z,98294.00
2023-03-20T15:57:26.117Z,98295.94
2023-03-20T15:59:52.825Z,98303.66
2023-03-20T16:02:19.284Z,98296.16
2023-03-20T16:04:47.759Z,98305.72
2023-03-20T16:07:40.700Z,98302.09
2023-03-20T16:10:22.178Z,98310.41
2023-03-20T16:12:54.437Z,98310.22
2023-03-20T16:15:21.134Z,98305.34
2023-03-20T16:17:49.109Z,98316.16
2023-03-20T16:20:16.750Z,98315.09
2023-03-20T16:22:43.694Z,98312.50
2023-03-20T16:25:15.005Z,98316.28
2023-03-20T16:27:41.805Z,98309.22
2023-03-20T16:30:14.009Z,98304.69
2023-03-20T16:32:41.616Z,98306.22
2023-03-20T16:35:19.181Z,98299.56
2023-03-20T16:37:52.539Z,98302.22
2023-03-20T16:40:22.256Z,98297.88
2023-03-20T16:42:48.784Z,98311.50
2023-03-20T16:45:44.143Z,98308.75
2023-03-20T16:48:11.026Z,98312.91
2023-03-20T16:50:41.646Z,98317.53
2023-03-20T16:53:12.151Z,98308.94
2023-03-20T16:55:46.560Z,98315.94
2023-03-20T16:58:41.043Z,98304.84
2023-03-20T17:01:09.858Z,98303.13
2023-03-20T17:03:40.074Z,98312.47
2023-03-20T17:06:29.249Z,98300.59
2023-03-20T17:09:00.486Z,98303.16
2023-03-20T17:11:29.754Z,98297.94
2023-03-20T17:13:56.409Z,98302.66
2023-03-20T17:16:22.976Z,98308.06
2023-03-20T17:19:05.145Z,98306.72
2023-03-20T17:21:31.745Z,98306.44
2023-03-20T17:23:58.279Z,98301.91
2023-03-20T17:26:24.896Z,98308.25
2023-03-20T17:28:51.437Z,98309.38
2023-03-20T17:31:18.011Z,98312.47
2023-03-20T17:33:44.704Z,98314.06
2023-03-20T17:36:23.561Z,98309.34
2023-03-20T17:38:50.038Z,98317.19
2023-03-20T17:41:17.373Z,98308.09
2023-03-20T17:43:44.109Z,98314.38
2023-03-20T17:46:22.330Z,98318.25
2023-03-20T17:48:48.853Z,98325.25
2023-03-20T17:51:15.301Z,98335.31
2023-03-20T17:53:41.794Z,98333.69
2023-03-20T17:56:15.303Z,98336.25
2023-03-20T17:58:44.568Z,98333.28
2023-03-20T18:01:11.750Z,98330.59
2023-03-20T18:03:38.266Z,98336.63
2023-03-20T18:06:04.949Z,98331.75
2023-03-20T18:08:31.486Z,98333.53
2023-03-20T18:10:58.122Z,98329.22
2023-03-20T18:13:25.317Z,98328.75
2023-03-20T18:15:53.462Z,98331.84
2023-03-20T18:18:22.447Z,98329.88
2023-03-20T18:20:50.186Z,98326.44
2023-03-20T18:23:16.998Z,98336.88
2023-03-20T18:25:44.384Z,98335.47
2023-03-20T18:28:14.996Z,98336.72
2023-03-20T18:30:41.688Z,98332.50
2023-03-20T18:33:08.345Z,98337.41
2023-03-20T18:35:35.439Z,98335.00
2023-03-20T18:38:01.999Z,98348.25
2023-03-20T18:40:30.222Z,98347.81
2023-03-20T18:42:57.637Z,98348.78
2023-03-20T18:45:24.676Z,98348.25
2023-03-20T18:47:51.214Z,98336.13
2023-03-20T18:50:26.301Z,98342.91
2023-03-20T18:52:54.002Z,98336.06
2023-03-20T18:55:20.860Z,98344.25
2023-03-20T18:57:47.585Z,98342.75
2023-03-20T19:00:23.119Z,98343.75
2023-03-20T19:02:50.320Z,98336.47
2023-03-20T19:05:17.380Z,98339.88
2023-03-20T19:07:43.868Z,98342.00
2023-03-20T19:10:35.693Z,98335.22
2023-03-20T19:13:03.333Z,98338.84
2023-03-20T19:15:30.955Z,98337.22
2023-03-20T19:17:57.420Z,98336.75
2023-03-20T19:20:30.292Z,98339.69
2023-03-20T19:22:56.848Z,98342.28
2023-03-20T19:25:23.329Z,98335.63
2023-03-20T19:27:49.786Z,98340.78
2023-03-20T19:30:38.832Z,98333.31
2023-03-20T19:33:06.373Z,98328.63
2023-03-20T19:36:01.318Z,98333.97
2023-03-20T19:38:21.174Z,98339.31
2023-03-20T19:40:48.820Z,98343.06
2023-03-20T19:43:15.947Z,98336.09
2023-03-20T19:45:43.696Z,98336.56
2023-03-20T19:48:20.603Z,98342.59
2023-03-20T19:50:47.500Z,98342.63
2023-03-20T19:53:15.703Z,98346.34
2023-03-20T19:55:42.210Z,98345.72
2023-03-20T19:58:08.741Z,98343.13
2023-03-20T20:03:23.733Z,98335.97
2023-03-20T20:05:50.757Z,98348.81
2023-03-20T20:08:29.035Z,98353.50
2023-03-20T20:11:03.871Z,98338.41
2023-03-20T20:13:32.472Z,98338.91
2023-03-20T20:15:58.978Z,98333.25
2023-03-20T20:18:26.143Z,98328.50
2023-03-20T20:21:42.718Z,98323.50
2023-03-20T20:23:41.796Z,98332.91
2023-03-20T20:26:09.778Z,98319.63
2023-03-20T20:28:36.287Z,98330.00
2023-03-20T20:31:02.935Z,98319.91
2023-03-20T20:33:29.574Z,98314.75
2023-03-20T20:36:36.673Z,98321.22
2023-03-20T20:38:50.953Z,98315.88
2023-03-20T20:41:17.802Z,98321.53
2023-03-20T20:46:30.803Z,98313.78
2023-03-20T20:48:57.426Z,98323.50
2023-03-20T20:51:23.941Z,98327.25
2023-03-20T20:53:50.484Z,98334.69
2023-03-20T20:56:16.942Z,98332.59
2023-03-20T20:58:43.438Z,98330.31
2023-03-20T21:01:09.930Z,98321.72
2023-03-20T21:03:36.637Z,98333.72
2023-03-20T21:06:06.443Z,98327.88
2023-03-20T21:08:34.725Z,98319.44
2023-03-20T21:11:01.292Z,98329.19
2023-03-20T21:13:27.764Z,98325.31
2023-03-20T21:16:00.343Z,98329.31
2023-03-20T21:18:26.846Z,98321.38
2023-03-20T21:20:53.309Z,98326.75
2023-03-20T21:23:19.780Z,98321.06
2023-03-20T21:25:47.865Z,98323.97
2023-03-20T21:28:14.689Z,98322.34
2023-03-20T21:30:54.458Z,98326.09
2023-03-20T21:33:28.302Z,98324.63
2023-03-20T21:35:54.824Z,98323.81
2023-03-20T21:41:11.031Z,98324.13
2023-03-20T21:43:37.530Z,98317.66
2023-03-20T21:46:52.540Z,98323.97
2023-03-20T21:49:38.694Z,98312.13
2023-03-20T21:57:52.332Z,98313.13
2023-03-20T22:00:47.824Z,98314.75
2023-03-20T22:02:45.302Z,98309.38
2023-03-20T22:08:57.741Z,98311.84
2023-03-20T22:14:40.552Z,98323.50
2023-03-20T22:17:29.930Z,98324.78
2023-03-20T22:25:31.545Z,98328.50
2023-03-20T22:28:12.110Z,98328.19
2023-03-20T22:34:01.033Z,98338.75
2023-03-20T22:42:18.470Z,98335.66
2023-03-20T22:44:50.653Z,98342.78
2023-03-20T22:46:57.744Z,98330.97
2023-03-20T22:49:24.215Z,98341.19
2023-03-20T22:52:11.510Z,98330.63
2023-03-20T22:54:38.029Z,98334.19
2023-03-20T22:57:04.507Z,98329.81
2023-03-20T22:59:30.972Z,98337.13
2023-03-20T23:01:57.434Z,98337.59
2023-03-20T23:04:23.966Z,98330.47
2023-03-20T23:06:50.475Z,98337.78
2023-03-20T23:09:17.172Z,98338.91
2023-03-20T23:11:43.846Z,98333.56
2023-03-20T23:14:20.488Z,98338.41
2023-03-20T23:16:47.938Z,98334.84
2023-03-20T23:19:14.430Z,98335.97
2023-03-20T23:21:41.359Z,98339.22
2023-03-20T23:24:08.033Z,98340.19
2023-03-20T23:26:34.486Z,98336.44
2023-03-20T23:29:03.260Z,98333.56
2023-03-20T23:31:29.847Z,98329.97
2023-03-20T23:33:57.000Z,98328.84
2023-03-20T23:36:35.259Z,98337.94
2023-03-20T23:39:06.274Z,98339.19
2023-03-20T23:42:01.715Z,98338.59
2023-03-20T23:44:19.292Z,98337.56
2023-03-20T23:46:48.123Z,98333.06
2023-03-20T23:49:14.923Z,98342.63
2023-03-20T23:51:41.384Z,98334.50
2023-03-20T23:54:07.847Z,98335.63
2023-03-20T23:56:34.343Z,98336.28
2023-03-20T23:59:08.280Z,98334.50
